Terminal Aerodrome Forecast
Issued by NWS

Home | Current Version | Previous Version | Text Only | Print | Product List | Glossary On
Versions: 1 2 3 4 5 6 7 8 9 10 11 12 13 14
000
FTUS45 KRIW 230257 AAA
TAFPNA
TAF AMD
KPNA 230257Z 2303/2324 VRB05KT P6SM BKN040
     FM230600 29012G18KT P6SM VCSH BKN040
     FM231300 30014KT P6SM BKN050
     FM231900 30018G28KT P6SM SCT090
      AMD LTD TO CLD VIS AND WIND=

USA.gov is the U.S. government's official web portal to all federal, state and local government web resources and services.